Time;durP1;ratioP1;P1;durP2;ratioP2;P2;SDS_P1;SDS_P2;PMS_P1;PMS_P2;Temp;Humidity;BMP_temperature;BMP_pressure;BME280_temperature;BME280_humidity;BME280_pressure;Samples;Min_cycle;Max_cycle;Signal;HPM_P1;HPM_P2
2021/01/22 00:01:41;;;;;;;6.07;1.35;;;16.20;99.90;;;;;;5010951;28;20026;-59
2021/01/22 00:04:07;;;;;;;4.80;1.02;;;16.20;99.90;;;;;;5011556;28;20026;-57
2021/01/22 00:06:33;;;;;;;5.28;1.50;;;16.20;99.90;;;;;;5011238;28;20025;-58
2021/01/22 00:08:58;;;;;;;5.90;1.45;;;16.10;99.90;;;;;;5011403;28;20030;-57
2021/01/22 00:11:24;;;;;;;4.10;1.30;;;16.10;99.90;;;;;;5011412;28;20029;-59
2021/01/22 00:13:49;;;;;;;6.38;1.23;;;16.10;99.90;;;;;;5011214;28;20026;-59
2021/01/22 00:16:15;;;;;;;3.35;1.20;;;16.10;99.90;;;;;;5011166;28;20042;-59
2021/01/22 00:18:40;;;;;;;4.45;1.48;;;16.10;99.90;;;;;;5010727;28;20047;-58
2021/01/22 00:21:06;;;;;;;3.92;1.00;;;16.10;99.90;;;;;;5011495;28;20052;-57
2021/01/22 00:23:32;;;;;;;3.03;0.90;;;16.00;99.90;;;;;;5010645;28;20509;-58
2021/01/22 00:25:57;;;;;;;2.88;0.93;;;16.00;99.90;;;;;;5011439;28;20062;-57
2021/01/22 00:28:23;;;;;;;3.47;1.00;;;16.00;99.90;;;;;;5010903;28;20545;-57
2021/01/22 00:30:49;;;;;;;6.57;1.02;;;16.00;99.90;;;;;;5011285;28;20032;-59
2021/01/22 00:33:14;;;;;;;4.97;1.23;;;15.90;99.90;;;;;;5010908;28;20117;-58
2021/01/22 00:35:40;;;;;;;3.22;1.10;;;15.90;99.90;;;;;;5010883;28;20065;-59
2021/01/22 00:38:05;;;;;;;3.55;1.20;;;15.90;99.90;;;;;;5010663;28;20025;-58
2021/01/22 00:40:31;;;;;;;4.22;1.33;;;15.90;99.90;;;;;;5011399;28;20036;-59
2021/01/22 00:42:57;;;;;;;3.25;0.88;;;15.80;99.90;;;;;;5011603;28;20101;-59
2021/01/22 00:45:23;;;;;;;2.33;0.90;;;15.90;99.90;;;;;;5011261;28;20029;-59
2021/01/22 00:47:48;;;;;;;3.03;0.80;;;15.80;99.90;;;;;;5011026;28;20056;-59
2021/01/22 00:50:14;;;;;;;3.28;1.10;;;15.80;99.90;;;;;;5011154;28;20087;-60
2021/01/22 00:52:39;;;;;;;3.55;1.20;;;15.80;99.90;;;;;;5010650;28;20022;-58
2021/01/22 00:55:07;;;;;;;2.47;0.70;;;15.80;99.90;;;;;;5013391;28;20501;-59
2021/01/22 00:57:32;;;;;;;3.13;1.10;;;15.80;99.90;;;;;;5013821;28;20549;-57
2021/01/22 00:59:58;;;;;;;2.55;0.98;;;15.80;99.90;;;;;;5014943;28;20112;-60
2021/01/22 01:02:23;;;;;;;2.75;0.85;;;15.70;99.90;;;;;;5014689;28;20053;-58
2021/01/22 01:04:49;;;;;;;2.80;0.90;;;15.70;99.90;;;;;;5014514;28;20487;-59
2021/01/22 01:07:15;;;;;;;2.67;1.00;;;15.70;99.90;;;;;;5014032;28;20080;-59
2021/01/22 01:09:40;;;;;;;3.15;0.95;;;15.70;99.90;;;;;;5013983;28;20080;-60
2021/01/22 01:12:06;;;;;;;2.97;1.02;;;15.60;99.90;;;;;;5014419;28;20036;-59
2021/01/22 01:14:32;;;;;;;3.00;0.90;;;15.60;99.90;;;;;;5013977;28;20372;-58
2021/01/22 01:16:58;;;;;;;3.50;1.23;;;15.60;99.90;;;;;;5014860;28;20030;-57
2021/01/22 01:19:23;;;;;;;2.20;0.93;;;15.60;99.90;;;;;;5014188;28;20076;-59
2021/01/22 01:21:49;;;;;;;3.40;0.90;;;15.60;99.90;;;;;;5014042;28;20058;-59
2021/01/22 01:24:14;;;;;;;3.30;1.00;;;15.60;99.90;;;;;;5013579;28;20425;-59
2021/01/22 01:26:40;;;;;;;2.97;0.98;;;15.50;99.90;;;;;;5014109;28;20057;-59
2021/01/22 01:29:06;;;;;;;2.80;1.02;;;15.50;99.90;;;;;;5014103;28;20033;-59
2021/01/22 01:31:31;;;;;;;3.15;1.00;;;15.50;99.90;;;;;;5014189;28;20033;-58
2021/01/22 01:33:57;;;;;;;2.90;0.95;;;15.50;99.90;;;;;;5014143;28;20213;-59
2021/01/22 01:36:23;;;;;;;3.17;1.05;;;15.50;99.90;;;;;;5014086;28;20073;-58
2021/01/22 01:38:48;;;;;;;3.03;0.98;;;15.40;99.90;;;;;;5013433;28;20076;-59
2021/01/22 01:41:14;;;;;;;2.15;0.88;;;15.40;99.90;;;;;;5013918;28;20030;-59
2021/01/22 01:43:40;;;;;;;1.90;0.80;;;15.40;99.90;;;;;;5013731;28;20026;-58
2021/01/22 01:46:06;;;;;;;3.72;0.88;;;15.40;99.90;;;;;;5013724;28;20540;-59
2021/01/22 01:48:31;;;;;;;1.98;0.73;;;15.30;99.90;;;;;;5013773;28;20525;-58
2021/01/22 01:50:57;;;;;;;1.88;0.80;;;15.30;99.90;;;;;;5014137;28;20137;-59
2021/01/22 01:53:24;;;;;;;3.60;0.88;;;15.30;99.90;;;;;;5013099;28;20084;-58
2021/01/22 01:55:50;;;;;;;2.47;0.70;;;15.30;99.90;;;;;;5013007;28;20534;-59
2021/01/22 01:58:16;;;;;;;2.10;0.80;;;15.30;99.90;;;;;;5013001;28;20030;-59
2021/01/22 02:00:42;;;;;;;3.05;0.68;;;15.20;99.90;;;;;;5013061;28;20390;-59
2021/01/22 02:03:07;;;;;;;3.40;0.70;;;15.20;99.90;;;;;;5013466;28;20029;-59
2021/01/22 02:05:33;;;;;;;3.25;0.80;;;15.20;99.90;;;;;;5012786;28;20471;-58
2021/01/22 02:07:59;;;;;;;4.65;1.00;;;15.20;99.90;;;;;;5013803;28;20025;-58
2021/01/22 02:10:25;;;;;;;1.92;0.80;;;15.10;99.90;;;;;;5013212;28;20033;-59
2021/01/22 02:12:52;;;;;;;3.70;0.82;;;15.20;99.90;;;;;;5013268;28;20531;-58
2021/01/22 02:15:18;;;;;;;1.33;0.60;;;15.10;99.90;;;;;;5013413;28;20042;-58
2021/01/22 02:17:46;;;;;;;3.17;0.93;;;15.10;99.90;;;;;;5013140;28;20026;-59
2021/01/22 02:20:24;;;;;;;2.30;0.80;;;15.10;99.90;;;;;;5013279;28;20061;-59
2021/01/22 02:22:52;;;;;;;2.60;0.80;;;15.10;99.90;;;;;;5012591;28;20068;-58
2021/01/22 02:25:21;;;;;;;3.15;0.80;;;15.10;99.90;;;;;;5012415;28;20425;-59
2021/01/22 02:27:47;;;;;;;1.63;0.80;;;15.00;99.90;;;;;;5012468;28;20397;-59
2021/01/22 02:30:13;;;;;;;2.38;0.70;;;15.00;99.90;;;;;;5013019;28;20109;-60
2021/01/22 02:32:44;;;;;;;2.00;0.80;;;15.00;99.90;;;;;;5012429;28;20022;-59
2021/01/22 02:35:12;;;;;;;1.63;0.50;;;15.00;99.90;;;;;;5013081;28;20122;-57
2021/01/22 02:37:40;;;;;;;2.03;0.75;;;15.00;99.90;;;;;;5012838;28;20033;-59
2021/01/22 02:40:08;;;;;;;1.52;0.70;;;15.00;99.90;;;;;;5012994;28;20021;-59
2021/01/22 02:42:39;;;;;;;2.47;0.80;;;14.90;99.90;;;;;;5012360;28;20036;-59
2021/01/22 02:45:11;;;;;;;2.67;0.90;;;14.90;99.90;;;;;;5012798;28;20049;-59
2021/01/22 02:47:41;;;;;;;2.30;0.90;;;14.90;99.90;;;;;;5012848;28;20026;-59
2021/01/22 02:50:07;;;;;;;2.08;0.88;;;14.90;99.90;;;;;;5012728;28;20434;-59
2021/01/22 02:52:35;;;;;;;1.83;0.70;;;14.90;99.90;;;;;;5011747;28;20030;-59
2021/01/22 02:55:01;;;;;;;1.63;0.55;;;14.80;99.90;;;;;;5012831;28;20372;-59
2021/01/22 02:58:21;;;;;;;2.13;0.73;;;14.90;99.90;;;;;;5012407;28;20076;-58
2021/01/22 03:00:50;;;;;;;1.65;0.80;;;14.90;99.90;;;;;;4990105;28;20034;-58
2021/01/22 03:03:42;;;;;;;3.13;0.80;;;14.80;99.90;;;;;;5011620;28;20104;-59
2021/01/22 03:06:12;;;;;;;2.42;1.00;;;14.90;99.90;;;;;;5011990;28;20029;-58
2021/01/22 03:08:40;;;;;;;1.73;0.80;;;14.80;99.90;;;;;;5011828;28;20041;-59
2021/01/22 03:11:07;;;;;;;2.67;1.10;;;14.80;99.90;;;;;;5012111;28;20029;-58
2021/01/22 03:13:33;;;;;;;3.30;0.95;;;14.80;99.90;;;;;;5011008;28;20386;-59
2021/01/22 03:16:01;;;;;;;1.65;0.70;;;14.80;99.90;;;;;;5012353;28;20033;-60
2021/01/22 03:18:26;;;;;;;2.33;0.70;;;14.80;99.90;;;;;;5012152;28;20022;-59
2021/01/22 03:20:52;;;;;;;1.10;0.50;;;14.80;99.90;;;;;;5012126;28;20065;-58
2021/01/22 03:23:19;;;;;;;2.20;0.75;;;14.70;99.90;;;;;;5011918;28;20030;-60
2021/01/22 03:25:45;;;;;;;2.70;0.55;;;14.70;99.90;;;;;;5011723;28;20048;-58
2021/01/22 03:28:11;;;;;;;1.90;0.65;;;14.70;99.90;;;;;;5011766;28;20509;-57
2021/01/22 03:30:37;;;;;;;1.23;0.50;;;14.70;99.90;;;;;;5011482;28;20026;-59
2021/01/22 03:33:04;;;;;;;3.55;0.55;;;14.70;99.90;;;;;;5011463;28;20030;-59
2021/01/22 03:35:30;;;;;;;2.28;0.60;;;14.70;99.90;;;;;;5011741;28;20532;-59
2021/01/22 03:37:56;;;;;;;2.08;0.68;;;14.60;99.90;;;;;;5011664;28;20116;-58
2021/01/22 03:40:22;;;;;;;1.80;0.50;;;14.60;99.90;;;;;;5010791;28;20441;-58
2021/01/22 03:42:48;;;;;;;2.92;0.80;;;14.60;99.90;;;;;;5011408;28;20088;-59
2021/01/22 03:45:15;;;;;;;1.27;0.63;;;14.60;99.90;;;;;;5011683;28;20030;-59
2021/01/22 03:47:41;;;;;;;2.42;0.75;;;14.60;99.90;;;;;;5010976;28;20100;-60
2021/01/22 03:50:08;;;;;;;2.15;0.60;;;14.60;99.90;;;;;;5011918;28;20022;-60
2021/01/22 03:52:33;;;;;;;5.22;0.70;;;14.50;99.90;;;;;;5010999;28;20026;-59
2021/01/22 03:54:59;;;;;;;1.50;0.50;;;14.50;99.90;;;;;;5011968;28;20040;-59
2021/01/22 03:57:25;;;;;;;2.05;0.40;;;14.50;99.90;;;;;;5011699;28;20057;-57
2021/01/22 03:59:50;;;;;;;1.77;0.60;;;14.50;99.90;;;;;;5011529;28;20433;-59
2021/01/22 04:02:17;;;;;;;3.00;0.80;;;14.40;99.90;;;;;;5010692;28;20041;-59
2021/01/22 04:04:46;;;;;;;2.00;0.60;;;14.40;99.90;;;;;;5011384;28;20076;-57
2021/01/22 04:07:12;;;;;;;2.05;0.60;;;14.40;99.90;;;;;;5011396;28;20455;-56
2021/01/22 04:09:37;;;;;;;1.65;0.63;;;14.40;99.90;;;;;;5011086;28;20060;-60
2021/01/22 04:12:03;;;;;;;0.95;0.60;;;14.40;99.90;;;;;;5011006;28;20080;-57
2021/01/22 04:14:29;;;;;;;3.00;0.55;;;14.40;99.90;;;;;;5011735;28;20033;-59
2021/01/22 04:16:55;;;;;;;1.77;0.60;;;14.40;99.90;;;;;;5010321;28;20049;-60
2021/01/22 04:19:22;;;;;;;1.90;0.60;;;14.40;99.90;;;;;;5011613;28;20026;-57
2021/01/22 04:21:47;;;;;;;1.58;0.55;;;14.40;99.90;;;;;;5011383;28;20057;-59
2021/01/22 04:24:13;;;;;;;2.13;0.57;;;14.40;99.90;;;;;;5011697;28;20490;-58
2021/01/22 04:26:41;;;;;;;3.78;0.60;;;14.30;99.90;;;;;;5010875;28;20029;-58
2021/01/22 04:29:07;;;;;;;3.72;0.80;;;14.30;99.90;;;;;;5012766;28;20024;-58
2021/01/22 04:31:33;;;;;;;3.30;0.60;;;14.30;99.90;;;;;;5014728;28;20040;-58
2021/01/22 04:33:58;;;;;;;1.73;0.40;;;14.30;99.90;;;;;;5015180;28;20021;-60
2021/01/22 04:36:24;;;;;;;2.90;0.63;;;14.30;99.90;;;;;;5014939;28;20552;-60
2021/01/22 04:38:50;;;;;;;1.77;0.50;;;14.30;99.90;;;;;;5014790;28;20031;-59
2021/01/22 04:41:16;;;;;;;2.05;0.57;;;14.30;99.90;;;;;;5015228;28;20092;-57
2021/01/22 04:43:44;;;;;;;1.88;0.70;;;14.30;99.90;;;;;;5014695;28;20041;-57
2021/01/22 04:46:11;;;;;;;3.08;0.70;;;14.30;99.90;;;;;;5011713;28;20057;-59
2021/01/22 04:48:38;;;;;;;2.05;0.50;;;14.30;99.90;;;;;;5014399;28;20475;-59
2021/01/22 04:51:04;;;;;;;2.40;0.60;;;14.30;99.90;;;;;;5014748;28;20057;-57
2021/01/22 04:53:33;;;;;;;0.80;0.45;;;14.30;99.90;;;;;;5013628;28;20026;-57
2021/01/22 04:56:00;;;;;;;2.15;0.50;;;14.20;99.90;;;;;;5015141;28;20054;-59
2021/01/22 04:58:28;;;;;;;1.90;0.60;;;14.20;99.90;;;;;;5014457;28;20028;-58
2021/01/22 05:00:55;;;;;;;1.42;0.55;;;14.20;99.90;;;;;;5014082;28;20034;-58
2021/01/22 05:03:26;;;;;;;1.98;0.60;;;14.20;99.90;;;;;;5014724;28;20029;-57
2021/01/22 05:05:53;;;;;;;3.25;0.70;;;14.20;99.90;;;;;;5014257;28;20081;-58
2021/01/22 05:08:19;;;;;;;1.55;0.55;;;14.20;99.90;;;;;;5014760;28;20477;-59
2021/01/22 05:10:45;;;;;;;3.78;0.50;;;14.20;99.90;;;;;;5014095;28;20036;-59
2021/01/22 05:13:10;;;;;;;3.05;0.50;;;14.20;99.90;;;;;;5014609;28;20025;-59
2021/01/22 05:15:36;;;;;;;1.83;0.50;;;14.20;99.90;;;;;;5013893;28;20030;-59
2021/01/22 05:18:02;;;;;;;2.97;0.80;;;14.10;99.90;;;;;;5014108;28;20030;-58
2021/01/22 05:20:34;;;;;;;0.77;0.55;;;14.20;99.90;;;;;;5014837;28;20494;-59
2021/01/22 05:23:02;;;;;;;1.65;0.50;;;14.10;99.90;;;;;;5014571;28;20044;-59
2021/01/22 05:25:28;;;;;;;1.10;0.50;;;14.10;99.90;;;;;;5014099;28;20091;-58
2021/01/22 05:27:56;;;;;;;2.10;0.50;;;14.20;99.90;;;;;;5013902;28;20058;-59
2021/01/22 05:30:27;;;;;;;4.28;0.60;;;14.20;99.90;;;;;;5014506;28;20096;-59
2021/01/22 05:33:13;;;;;;;2.35;0.70;;;14.20;99.90;;;;;;5013793;28;20551;-59
2021/01/22 05:35:38;;;;;;;2.35;0.80;;;14.20;99.90;;;;;;5013708;28;20042;-59
2021/01/22 05:38:04;;;;;;;2.08;0.60;;;14.20;99.90;;;;;;5013688;28;20041;-60
2021/01/22 05:40:29;;;;;;;2.25;0.60;;;14.10;99.90;;;;;;5013933;28;20140;-59
2021/01/22 05:42:56;;;;;;;4.85;0.70;;;14.10;99.90;;;;;;5013917;28;20076;-61
2021/01/22 05:45:42;;;;;;;1.45;0.55;;;14.10;99.90;;;;;;5013729;28;20032;-59
2021/01/22 05:48:21;;;;;;;3.25;0.70;;;14.10;99.90;;;;;;5013272;28;20030;-59
2021/01/22 05:51:06;;;;;;;1.20;0.50;;;14.10;99.90;;;;;;5013531;28;20026;-57
2021/01/22 05:53:32;;;;;;;2.00;0.63;;;14.10;99.90;;;;;;5013878;28;20030;-58
2021/01/22 05:56:19;;;;;;;2.72;0.60;;;14.10;99.90;;;;;;5014024;28;20042;-60
2021/01/22 05:58:47;;;;;;;4.40;0.77;;;14.10;99.90;;;;;;5012941;28;20034;-58
2021/01/22 06:01:17;;;;;;;2.15;0.73;;;14.10;99.90;;;;;;5012762;28;20030;-62
2021/01/22 06:03:45;;;;;;;3.05;0.60;;;14.20;99.90;;;;;;5012998;28;20026;-59
2021/01/22 06:06:11;;;;;;;1.88;0.55;;;14.20;99.90;;;;;;5013302;28;20398;-57
2021/01/22 06:08:57;;;;;;;5.85;0.77;;;14.40;99.90;;;;;;5013420;28;20022;-60
2021/01/22 06:11:30;;;;;;;3.28;0.45;;;14.40;99.90;;;;;;5013225;28;20057;-58
2021/01/22 06:13:58;;;;;;;3.47;0.57;;;14.50;99.90;;;;;;5012812;28;20482;-58
2021/01/22 06:16:25;;;;;;;3.50;0.50;;;14.60;99.90;;;;;;5012125;28;20125;-58
2021/01/22 06:19:00;;;;;;;2.70;0.60;;;14.70;99.90;;;;;;5012781;28;20045;-58
2021/01/22 06:21:27;;;;;;;2.38;0.60;;;14.70;99.90;;;;;;5012771;28;20449;-58
2021/01/22 06:23:54;;;;;;;4.88;0.80;;;14.80;99.90;;;;;;5013209;28;20375;-57
2021/01/22 06:26:21;;;;;;;7.15;0.70;;;14.80;99.90;;;;;;5012581;28;20022;-61
2021/01/22 06:28:50;;;;;;;5.50;0.75;;;14.90;99.90;;;;;;5012953;28;20040;-58
2021/01/22 06:31:18;;;;;;;2.90;0.68;;;14.90;99.90;;;;;;5012792;28;20018;-62
2021/01/22 06:33:48;;;;;;;3.22;0.50;;;14.90;99.90;;;;;;5012556;28;20026;-63
2021/01/22 06:36:15;;;;;;;3.05;0.70;;;15.00;99.90;;;;;;5012581;28;20041;-58
2021/01/22 06:38:42;;;;;;;6.00;0.90;;;15.10;99.90;;;;;;5012716;28;20148;-61
2021/01/22 06:41:09;;;;;;;2.28;0.70;;;15.20;99.90;;;;;;5013236;28;20105;-61
2021/01/22 06:43:37;;;;;;;1.92;0.70;;;15.30;99.90;;;;;;5012469;28;20075;-65
2021/01/22 06:46:08;;;;;;;3.47;0.93;;;15.40;99.90;;;;;;5012433;28;20026;-59
2021/01/22 06:48:52;;;;;;;7.75;0.63;;;15.50;99.90;;;;;;5012872;28;20026;-59
2021/01/22 06:51:18;;;;;;;;;;;15.60;99.90;;;;;;5011827;28;20036;-57
2021/01/22 06:54:02;;;;;;;1.98;0.75;;;15.60;99.90;;;;;;5012851;28;20008;-60
2021/01/22 06:56:28;;;;;;;3.70;0.60;;;15.70;99.90;;;;;;5013372;28;20040;-59
2021/01/22 06:58:53;;;;;;;5.10;0.68;;;15.70;99.90;;;;;;5012467;28;20033;-60
2021/01/22 07:01:33;;;;;;;2.53;0.70;;;15.80;99.90;;;;;;5012106;28;20108;-59
2021/01/22 07:03:59;;;;;;;2.53;0.70;;;15.80;99.90;;;;;;5012830;28;20081;-59
2021/01/22 07:06:31;;;;;;;1.92;0.68;;;15.80;99.90;;;;;;5012461;28;20049;-59
2021/01/22 07:08:58;;;;;;;4.38;1.08;;;15.80;99.90;;;;;;5012472;28;20029;-56
2021/01/22 07:11:24;;;;;;;3.10;0.70;;;15.80;99.90;;;;;;5012574;28;20022;-57
2021/01/22 07:13:51;;;;;;;3.47;1.00;;;15.80;99.90;;;;;;5011889;28;20037;-59
2021/01/22 07:16:17;;;;;;;5.28;0.90;;;15.80;99.90;;;;;;5009694;28;20066;-60
2021/01/22 07:18:43;;;;;;;3.15;1.02;;;15.80;99.90;;;;;;4992445;28;20062;-58
2021/01/22 07:21:18;;;;;;;5.10;1.02;;;15.80;99.90;;;;;;5004279;28;20073;-58
2021/01/22 07:23:46;;;;;;;3.88;0.95;;;15.70;99.90;;;;;;5012061;28;20080;-57
2021/01/22 07:26:13;;;;;;;5.45;1.05;;;15.70;99.90;;;;;;5012055;28;20032;-58
2021/01/22 07:28:52;;;;;;;5.53;1.08;;;15.70;99.90;;;;;;5011434;28;20041;-58
2021/01/22 07:31:53;;;;;;;5.40;1.20;;;15.60;99.90;;;;;;5011906;28;20018;-61
2021/01/22 07:34:37;;;;;;;4.45;1.30;;;15.60;99.90;;;;;;5011962;28;20097;-58
2021/01/22 07:37:07;;;;;;;3.20;1.05;;;15.50;99.90;;;;;;5011799;28;20091;-56
2021/01/22 07:39:34;;;;;;;5.55;1.02;;;15.50;99.90;;;;;;5010982;28;20109;-61
2021/01/22 07:42:11;;;;;;;6.85;1.40;;;15.50;99.90;;;;;;5012503;28;20144;-60
2021/01/22 07:44:38;;;;;;;5.45;1.15;;;15.60;99.90;;;;;;5011370;28;20030;-60
2021/01/22 07:47:07;;;;;;;3.47;1.05;;;15.70;99.90;;;;;;5012116;28;20382;-61
2021/01/22 07:49:33;;;;;;;8.20;1.05;;;15.70;99.90;;;;;;5010528;28;20045;-59
2021/01/22 07:52:01;;;;;;;3.25;1.10;;;15.60;99.90;;;;;;5011672;28;20478;-60
2021/01/22 07:54:27;;;;;;;3.15;1.13;;;15.50;99.90;;;;;;5010551;28;20034;-60
2021/01/22 07:56:52;;;;;;;5.45;1.92;;;15.40;99.90;;;;;;5011542;28;20108;-60
2021/01/22 07:59:18;;;;;;;5.50;2.13;;;14.90;99.90;;;;;;5011360;28;20014;-65
2021/01/22 08:01:43;;;;;;;6.18;2.25;;;14.40;99.90;;;;;;5010322;28;20505;-60
2021/01/22 08:04:09;;;;;;;5.80;2.80;;;14.10;99.90;;;;;;5010333;28;20061;-64
2021/01/22 08:06:50;;;;;;;7.50;2.72;;;13.80;99.90;;;;;;5011257;28;20036;-58
2021/01/22 08:09:17;;;;;;;4.97;2.45;;;13.70;99.90;;;;;;5011382;28;20470;-60
2021/01/22 08:11:48;;;;;;;7.13;2.75;;;13.70;99.90;;;;;;5011600;28;20026;-61
2021/01/22 08:14:26;;;;;;;8.00;2.80;;;13.50;99.90;;;;;;5011246;28;20375;-59
2021/01/22 08:16:52;;;;;;;7.03;2.50;;;13.50;99.90;;;;;;5011000;28;20405;-64
2021/01/22 08:19:23;;;;;;;5.45;2.38;;;13.30;99.90;;;;;;5011615;28;20022;-60
2021/01/22 08:21:49;;;;;;;7.75;2.20;;;13.10;99.90;;;;;;5011183;28;20113;-60
2021/01/22 08:24:15;;;;;;;4.32;2.00;;;12.90;99.90;;;;;;5011448;28;20034;-59
2021/01/22 08:26:41;;;;;;;3.20;1.38;;;14.80;99.90;;;;;;5011138;28;20030;-59
2021/01/22 08:29:09;;;;;;;6.70;1.58;;;17.20;99.90;;;;;;5010947;28;20029;-60
2021/01/22 08:31:38;;;;;;;3.30;1.33;;;17.90;99.90;;;;;;5011486;28;20424;-59
2021/01/22 08:34:05;;;;;;;4.13;1.40;;;16.90;99.90;;;;;;5011251;28;20030;-60
2021/01/22 08:36:31;;;;;;;4.38;1.48;;;16.20;99.90;;;;;;5011445;28;20072;-59
2021/01/22 08:38:57;;;;;;;3.05;1.15;;;15.70;99.90;;;;;;5011131;28;20478;-59
2021/01/22 08:41:26;;;;;;;2.63;1.25;;;16.70;99.90;;;;;;5011042;28;20037;-59
2021/01/22 08:43:53;;;;;;;3.30;1.10;;;18.20;99.90;;;;;;5011316;28;20038;-60
2021/01/22 08:46:21;;;;;;;3.20;1.08;;;17.40;99.90;;;;;;5011554;28;20090;-60
2021/01/22 08:48:47;;;;;;;5.72;1.13;;;16.70;99.90;;;;;;5011024;28;20378;-60
2021/01/22 08:51:13;;;;;;;3.40;1.45;;;16.20;99.90;;;;;;5011145;28;20060;-59
2021/01/22 08:54:05;;;;;;;5.53;1.77;;;15.70;99.90;;;;;;5009983;28;20149;-59
2021/01/22 08:56:31;;;;;;;3.45;1.38;;;15.10;99.90;;;;;;5011261;28;20486;-60
2021/01/22 08:58:57;;;;;;;2.13;1.20;;;15.80;99.90;;;;;;5011085;28;20105;-58
2021/01/22 09:01:41;;;;;;;3.35;1.10;;;17.60;99.90;;;;;;5011160;28;20109;-62
2021/01/22 09:04:33;;;;;;;1.80;0.90;;;18.90;99.90;;;;;;5011186;28;20038;-60
2021/01/22 09:07:01;;;;;;;1.88;0.70;;;19.70;99.90;;;;;;5011238;28;20174;-60
2021/01/22 09:09:43;;;;;;;3.35;0.73;;;20.30;99.90;;;;;;5011502;28;20030;-60
2021/01/22 09:12:08;;;;;;;1.80;0.82;;;20.70;99.90;;;;;;5011175;28;20482;-59
2021/01/22 09:14:54;;;;;;;2.08;0.85;;;21.00;99.90;;;;;;5011305;28;20065;-61
2021/01/22 09:17:44;;;;;;;2.15;0.68;;;21.30;99.90;;;;;;5014723;28;20033;-59
2021/01/22 09:20:21;;;;;;;1.42;0.57;;;21.00;99.90;;;;;;5014756;28;20121;-60
2021/01/22 09:22:49;;;;;;;2.85;0.57;;;19.80;99.90;;;;;;5014455;28;20036;-60
2021/01/22 09:25:17;;;;;;;1.55;0.52;;;18.60;99.90;;;;;;5014514;28;20108;-60
2021/01/22 09:27:44;;;;;;;4.93;0.70;;;17.90;99.90;;;;;;5014415;28;20100;-58
2021/01/22 09:30:15;;;;;;;1.88;0.60;;;17.40;99.90;;;;;;5014437;28;20530;-60
2021/01/22 09:32:45;;;;;;;1.75;0.63;;;18.50;99.90;;;;;;5014023;28;20037;-59
2021/01/22 09:35:11;;;;;;;2.97;0.57;;;20.00;99.90;;;;;;5014338;28;20105;-60
2021/01/22 09:37:37;;;;;;;1.25;0.50;;;19.60;99.90;;;;;;5013645;28;20498;-62
2021/01/22 09:40:04;;;;;;;2.00;0.52;;;18.80;99.90;;;;;;5013911;28;20479;-60
2021/01/22 09:42:29;;;;;;;1.48;0.50;;;18.10;99.90;;;;;;5014439;28;20029;-60
2021/01/22 09:44:55;;;;;;;1.15;0.40;;;17.60;99.90;;;;;;5014070;28;20434;-60
2021/01/22 09:47:21;;;;;;;1.27;0.50;;;17.30;99.90;;;;;;5013785;28;20034;-61
2021/01/22 09:49:46;;;;;;;1.20;0.50;;;17.10;99.90;;;;;;5013581;28;20026;-60
2021/01/22 09:52:13;;;;;;;1.48;0.40;;;17.80;99.90;;;;;;5013719;28;20026;-60
2021/01/22 09:54:39;;;;;;;2.45;0.57;;;19.50;99.90;;;;;;5013467;28;20045;-60
2021/01/22 09:57:05;;;;;;;0.80;0.40;;;19.50;99.90;;;;;;5014058;28;20490;-71
2021/01/22 09:59:31;;;;;;;2.10;0.70;;;18.90;99.90;;;;;;5014390;28;20038;-71
2021/01/22 10:01:56;;;;;;;3.13;0.80;;;18.60;99.90;;;;;;5014396;28;20057;-72
2021/01/22 10:04:22;;;;;;;1.63;0.60;;;18.80;99.90;;;;;;5013836;28;20029;-67
2021/01/22 10:06:48;;;;;;;1.98;0.65;;;19.80;99.90;;;;;;5013650;28;20050;-63
2021/01/22 10:09:14;;;;;;;1.25;0.45;;;20.50;99.90;;;;;;5013889;28;20029;-69
2021/01/22 10:11:40;;;;;;;1.45;0.50;;;20.00;99.90;;;;;;5013521;28;20371;-65
2021/01/22 10:14:07;;;;;;;1.10;0.55;;;19.40;99.90;;;;;;5013592;28;20030;-65
2021/01/22 10:16:33;;;;;;;2.97;0.70;;;19.00;99.90;;;;;;5013439;28;20041;-66
2021/01/22 10:18:59;;;;;;;1.58;0.52;;;18.80;99.90;;;;;;5013888;28;20029;-66
2021/01/22 10:21:25;;;;;;;1.15;0.47;;;18.60;99.90;;;;;;5013572;28;20029;-67
2021/01/22 10:23:52;;;;;;;1.80;0.70;;;18.50;99.90;;;;;;5013192;28;20033;-65
2021/01/22 10:26:20;;;;;;;1.83;0.50;;;18.40;99.90;;;;;;5013431;28;20026;-65
2021/01/22 10:28:46;;;;;;;2.78;0.70;;;18.20;99.90;;;;;;5012876;28;20041;-66
2021/01/22 10:31:12;;;;;;;1.08;0.55;;;18.20;99.90;;;;;;5012969;28;20030;-64
2021/01/22 10:33:38;;;;;;;1.75;0.55;;;18.10;99.90;;;;;;5013067;28;20033;-66
2021/01/22 10:36:05;;;;;;;1.25;0.60;;;18.10;99.90;;;;;;5013080;28;20037;-65
2021/01/22 10:38:31;;;;;;;0.80;0.50;;;18.00;99.90;;;;;;5013390;28;20030;-67
2021/01/22 10:40:57;;;;;;;1.83;0.57;;;18.00;99.90;;;;;;5013575;28;20101;-67
2021/01/22 10:43:23;;;;;;;2.33;0.57;;;18.00;99.90;;;;;;5013251;28;20557;-67
2021/01/22 10:45:50;;;;;;;1.45;0.50;;;17.90;99.90;;;;;;5012894;28;20061;-68
2021/01/22 10:48:17;;;;;;;1.02;0.50;;;17.90;99.90;;;;;;5012994;28;20018;-63
2021/01/22 10:50:42;;;;;;;2.30;0.40;;;17.80;99.90;;;;;;5012585;28;20041;-66
2021/01/22 10:53:08;;;;;;;0.82;0.40;;;18.70;99.90;;;;;;5012509;28;20022;-65
2021/01/22 10:55:33;;;;;;;1.02;0.40;;;20.00;99.90;;;;;;5012429;28;20033;-65
2021/01/22 10:57:59;;;;;;;1.20;0.40;;;19.80;99.90;;;;;;5013043;28;20470;-66
2021/01/22 11:00:25;;;;;;;1.95;0.50;;;19.20;99.90;;;;;;5012800;28;20033;-65
2021/01/22 11:02:51;;;;;;;2.33;0.70;;;18.80;99.90;;;;;;5012712;28;20022;-66
2021/01/22 11:05:16;;;;;;;1.67;0.50;;;18.60;99.90;;;;;;5012239;28;20536;-66
2021/01/22 11:07:42;;;;;;;1.98;0.40;;;18.40;99.90;;;;;;5012404;28;20025;-66
2021/01/22 11:10:08;;;;;;;0.80;0.57;;;18.30;99.90;;;;;;5012102;28;20570;-64
2021/01/22 11:12:34;;;;;;;0.68;0.35;;;18.20;99.90;;;;;;5012313;28;20514;-64
2021/01/22 11:15:00;;;;;;;1.85;0.60;;;18.10;99.90;;;;;;5012705;28;20072;-63
2021/01/22 11:17:25;;;;;;;3.35;0.40;;;18.00;99.90;;;;;;5012610;28;20109;-65
2021/01/22 11:19:51;;;;;;;1.95;0.55;;;18.00;99.90;;;;;;5012014;28;20029;-65
2021/01/22 11:22:16;;;;;;;2.50;0.50;;;18.00;99.90;;;;;;5012445;28;20030;-65
2021/01/22 11:24:42;;;;;;;1.50;0.40;;;17.90;99.90;;;;;;5012291;28;20030;-69
2021/01/22 11:27:08;;;;;;;0.98;0.40;;;17.90;99.90;;;;;;5012362;28;20052;-68
2021/01/22 11:29:34;;;;;;;3.42;0.60;;;17.80;99.90;;;;;;5011137;28;20030;-66
2021/01/22 11:31:59;;;;;;;3.28;0.60;;;17.70;99.90;;;;;;5011609;28;20014;-68
2021/01/22 11:34:25;;;;;;;0.90;0.40;;;17.60;99.90;;;;;;5010770;28;20175;-67
2021/01/22 11:36:50;;;;;;;4.07;0.65;;;17.50;99.90;;;;;;5010753;28;20030;-69
2021/01/22 11:39:16;;;;;;;4.78;1.10;;;17.40;99.90;;;;;;5010755;28;20481;-66
2021/01/22 11:41:42;;;;;;;1.38;0.80;;;17.20;99.90;;;;;;5010536;28;20025;-68
2021/01/22 11:44:09;;;;;;;2.47;0.98;;;17.10;99.90;;;;;;5010622;28;20382;-68
2021/01/22 11:46:36;;;;;;;2.15;0.98;;;17.00;99.90;;;;;;5011204;28;20104;-68
2021/01/22 11:49:01;;;;;;;2.97;1.08;;;16.90;99.90;;;;;;5010678;28;20395;-64
2021/01/22 11:51:27;;;;;;;1.92;0.80;;;16.90;99.90;;;;;;5012105;28;20021;-66
2021/01/22 11:53:52;;;;;;;2.28;1.00;;;16.80;99.90;;;;;;5010228;28;20025;-68
2021/01/22 11:56:18;;;;;;;2.45;1.13;;;16.80;99.90;;;;;;5010804;28;20030;-67
2021/01/22 11:58:44;;;;;;;3.30;1.00;;;16.70;99.90;;;;;;5009494;28;20026;-67
2021/01/22 12:01:09;;;;;;;2.95;1.02;;;16.70;99.90;;;;;;5010601;28;20030;-63
2021/01/22 12:03:35;;;;;;;1.90;0.90;;;16.70;99.90;;;;;;5011107;28;20110;-62
2021/01/22 12:06:00;;;;;;;1.50;0.80;;;16.60;99.90;;;;;;5011680;28;20128;-65
2021/01/22 12:08:26;;;;;;;2.17;0.80;;;16.60;99.90;;;;;;5011649;28;20022;-65
2021/01/22 12:10:53;;;;;;;2.10;0.88;;;16.60;99.90;;;;;;5011547;28;20482;-62
2021/01/22 12:13:18;;;;;;;1.85;0.77;;;16.60;99.90;;;;;;5011599;28;20367;-63
2021/01/22 12:15:45;;;;;;;1.48;0.70;;;16.60;99.90;;;;;;5011350;28;20049;-64
2021/01/22 12:18:11;;;;;;;1.65;0.70;;;16.60;99.90;;;;;;5010831;28;20030;-64
2021/01/22 12:20:37;;;;;;;2.97;0.98;;;16.50;99.90;;;;;;5011134;28;20084;-64
2021/01/22 12:23:03;;;;;;;2.55;0.82;;;16.50;99.90;;;;;;5010925;28;20018;-65
2021/01/22 12:25:28;;;;;;;1.05;0.65;;;16.40;99.90;;;;;;5011083;28;20112;-64
2021/01/22 12:27:54;;;;;;;1.90;0.73;;;16.40;99.90;;;;;;5010799;28;20022;-65
2021/01/22 12:30:20;;;;;;;2.38;0.80;;;16.40;99.90;;;;;;5011489;28;20033;-64
2021/01/22 12:32:46;;;;;;;1.48;0.85;;;16.40;99.90;;;;;;5008742;28;20111;-65
2021/01/22 12:35:12;;;;;;;1.70;0.63;;;16.30;99.90;;;;;;5009264;28;20064;-65
2021/01/22 12:37:38;;;;;;;1.95;0.60;;;16.30;99.90;;;;;;5010490;28;20045;-64
2021/01/22 12:40:04;;;;;;;1.50;0.57;;;16.30;99.90;;;;;;5009429;28;20018;-64
2021/01/22 12:42:30;;;;;;;1.73;0.70;;;16.20;99.90;;;;;;5010978;28;20533;-64
2021/01/22 12:44:55;;;;;;;1.17;0.63;;;16.10;99.90;;;;;;5010743;28;20042;-64
2021/01/22 12:47:21;;;;;;;0.77;0.40;;;16.10;99.90;;;;;;5009128;28;20129;-64
2021/01/22 12:49:46;;;;;;;2.03;0.80;;;16.10;99.90;;;;;;5011478;28;20029;-64
2021/01/22 12:52:12;;;;;;;1.75;0.55;;;16.10;99.90;;;;;;5014700;28;20018;-64